Terminal Aerodrome Forecast
Issued by NWS

Current Version | Previous Version | Graphics & Text | Print | Product List | Glossary On
Versions: 1 2 3 4 5 6 7 8 9 10 11 12 13 14 15 16 17 18 19 20 21 22 23
677
FTUS41 KPBZ 252303 AAA
TAFMGW
TAF AMD
KMGW 252303Z 2523/2618 21008KT P6SM BKN035
      TEMPO 2523/2602 BKN025
     FM260200 23006KT P6SM -SHRA OVC030
     FM260500 24007KT P6SM -SHRA OVC008
     FM261300 26010KT P6SM VCSH OVC010=

USA.gov is the U.S. government's official web portal to all federal, state and local government web resources and services.